Página principal
METAR-TAF:

METAR-TAF

Aeroportos :

Rota, Espanha

latitude: 36-39N, longitude: 006-21W, altura: 26 m

Observação actual do tempo

O boletim foi feito há 36 minutos, às 05:30 UTC
Vento 5 kt de nor-noroeste, variando entre oes-noroeste e norte
Temperatura 16°C
Humidade 63%
Pressão 1016 hPa
Visibilidade 10 km ou mais
sem nuvens abaixo de 1500 metros e sem cumulonimbus

METAR: LERT 250530Z 34005KT 300V010 CAVOK 16/09 Q1016 NOSIG

Hora: 08:06 (06:06 UTC)

Previsão

O boletim foi feito há 4 horas e 6 minutos, às 02:00 UTC
Previsão válida de 25 às 03 UTC a 26 às 03 UTC
Vento 8 kt de nor-noroeste
Visibilidade 10 km ou mais
sem nuvens abaixo de 1500 metros e sem cumulonimbus
Tornando-se
de 25 às 05 UTC a 25 às 07 UTC
Vento 10 kt de nor-nordeste
Tornando-se
de 25 às 17 UTC a 25 às 20 UTC
Vento 3 kt com direcção variável

TAF: LERT 250200Z 2503/2603 33008KT CAVOK TX26/2513Z TN17/2505Z BECMG 2505/2507 03010KT BECMG 2517/2520 VRB03KT

Observações e previsões do tempo de mais de 4000 aeroportos (mensagens METAR e TAF).

As estações disponíveis são os pontos amarelos e vermelhos sobre o mapa.

Mova o rato sobre o mapa para ver o nome da estação.

Depois clique no ponto para visualizar as observações e previsões meteorológicas.

Para alterar o mapa : clique nos botões verdes com uma cruz preta para aumentar o zoom; no botão verde com uma pitada de zoom; ou nas setas verdes para mapas adjacentes.


METAR-TAF: